Latest Coastal Weather Observations for Cape Borda

IDS60701

Issued at 11:31 pm CST Sunday 14 April 2024 (issued every 10 minutes, with the page automatically refreshed every 10 minutes)

About coastal observations | Map of coastal stations | Coastal observations for SA | Marine services | Other Formats
Station Details ID: 022823 Name: CAPE BORDA Lat: -35.75 Lon: 136.60 Height: 158.0 m
Data from the previous 72 hours. | See also: Recent months at Cape Borda
Date/Time
CST
Wind Sea
Height
m
Swell Vis
km
Cloud Weather Temp
°C
Press
MSL
hPa
Rain since
9am
mm
Dir  Spd
kts
Gust
kts
Height
m
Period
s
Dir
14/11:30pm SE 8 9 - - - - - - - 10.8 1024.5 0.2
14/11:00pm ESE 9 10 - - - - - - - 11.0 1024.5 0.2
14/10:30pm SE 9 10 - - - - - - - 11.0 1024.7 0.2
14/10:00pm ESE 9 10 - - - - - - - 10.9 1024.8 0.2
14/09:30pm SE 9 10 - - - - - - - 11.0 1024.6 0.2
14/09:00pm SE 9 11 - - - - - - - 11.3 1024.5 0.2
14/08:30pm SSE 9 10 - - - - - - - 11.3 1024.6 0.2
14/08:00pm SSE 9 10 - - - - - - - 11.7 1024.4 0.2
14/07:30pm SSE 9 10 - - - - - - - 11.7 1024.2 0.2
14/07:00pm SSE 9 10 - - - - - - - 12.4 1024.0 0.2
14/06:30pm S 7 8 - - - - - - - 13.0 1023.8 0.2
14/06:00pm S 7 9 - - - - - - - 14.0 1023.5 0.2
14/05:30pm SSW 10 13 - - - - - - - 14.9 1023.4 0.2
14/05:00pm SSW 9 14 - - - - - - - 15.0 1023.3 0.2
14/04:30pm SW 11 13 - - - - - - - 16.2 1023.1 0.2
14/04:00pm SW 9 12 - - - - - - - 16.8 1023.1 0.2
14/03:30pm SW 11 14 - - - - - - - 16.8 1023.2 0.2
14/03:00pm SW 10 13 - - - - - - - 16.8 1023.2 0.2
14/02:30pm SW 12 15 - - - - - - - 16.6 1023.1 0.2
14/02:00pm WSW 11 15 - - - - - - - 17.7 1023.2 0.2
14/01:30pm WSW 11 14 - - - - - - - 17.2 1023.3 0.2
14/01:00pm WSW 13 17 - - - - - - - 17.1 1023.6 0.2
14/12:30pm WSW 10 14 - - - - - - - 17.1 1023.7 0.2
14/12:00pm W 9 11 - - - - - - - 17.3 1023.9 0.0
14/11:30am WNW 8 11 - - - - - - - 16.4 1024.1 0.0
14/11:00am WNW 7 10 - - - - - - - 16.2 1024.1 0.0
14/10:30am WNW 7 9 - - - - - - - 16.0 1024.2 0.0
14/10:00am WNW 5 7 - - - - - - - 15.4 1024.3 0.0
14/09:30am NNW 4 7 - - - - - - - 15.5 1024.3 0.0
14/09:00am N 2 4 - - - - - - - 15.0 1024.2 -
14/08:30am E 3 4 - - - - - - - 13.5 1024.3 -
14/08:00am ENE 4 5 - - - - - - - 13.3 1024.2 -
14/07:30am NE 5 6 - - - - - - - 11.7 1023.9 -
14/07:00am NE 6 7 - - - - - - - 10.4 1023.6 -
14/06:30am NE 6 7 - - - - - - - 10.4 1023.3 -
14/06:00am NE 6 6 - - - - - - - 10.4 1023.5 -
14/05:30am NE 5 6 - - - - - - - 10.3 1023.2 -
14/05:00am NE 4 5 - - - - - - - 9.9 1023.3 -
14/04:30am ENE 4 5 - - - - - - - 9.5 1023.2 -
14/04:00am E 6 7 - - - - - - - 9.7 1023.0 -
14/03:30am E 7 8 - - - - - - - 9.6 1022.9 -
14/03:00am E 9 10 - - - - - - - 9.3 1022.8 0.0
14/02:30am ESE 8 9 - - - - - - - 8.7 1023.1 -
14/02:00am E 8 9 - - - - - - - 9.2 1023.5 -
14/01:30am E 7 8 - - - - - - - 9.4 1023.8 -
14/01:00am ESE 7 8 - - - - - - - 9.2 1023.8 -
14/12:30am ESE 7 7 - - - - - - - 9.5 1023.8 -
14/12:00am SE 7 8 - - - - - - - 9.4 1023.8 -
 
Date/Time
CST
Wind Sea
Height
m
Swell Vis
km
Cloud Weather Temp
°C
Press
MSL
hPa
Rain since
9am
mm
Dir  Spd
kts
Gust
kts
Height
m
Period
s
Dir
13/11:30pm SE 7 7 - - - - - - - 9.8 1024.0 -
13/11:00pm SE 9 9 - - - - - - - 9.8 1024.1 -
13/10:30pm SE 8 8 - - - - - - - 10.5 1024.5 -
13/10:00pm SE 7 7 - - - - - - - 10.6 1024.8 -
13/09:30pm SE 8 8 - - - - - - - 10.0 1024.8 -
13/09:00pm SSE 8 8 - - - - - - - 9.8 1024.8 0.0
13/08:30pm SSE 8 9 - - - - - - - 10.2 1024.7 -
13/08:00pm SSE 8 9 - - - - - - - 10.4 1024.6 -
13/07:30pm SSE 8 8 - - - - - - - 10.6 1024.7 -
13/07:00pm S 8 8 - - - - - - - 11.4 1024.5 -
13/06:30pm S 8 9 - - - - - - - 11.9 1024.1 -
13/06:00pm SSW 8 10 - - - - - - - 13.1 1023.8 -
13/05:30pm SW 9 13 - - - - - - - 14.5 1023.6 -
13/05:00pm SSW 10 14 - - - - - - - 15.1 1023.2 -
13/04:30pm SW 11 14 - - - - - - - 15.8 1023.2 -
13/04:00pm SW 9 13 - - - - - - - 16.5 1023.3 -
13/03:30pm SW 9 13 - - - - - - - 16.6 1023.4 -
13/03:00pm WSW 9 12 - - - - - - - 16.6 1023.7 -
13/02:30pm WSW 10 12 - - - - - - - 16.5 1024.0 -
13/02:00pm WSW 9 11 - - - - - - - 16.4 1024.3 -
13/01:30pm W 7 9 - - - - - - - 16.7 1024.3 -
13/01:00pm WSW 7 10 - - - - - - - 16.3 1024.7 -
13/12:30pm SW 6 9 - - - - - - - 16.0 1025.4 -
13/12:00pm WSW 6 9 - - - - - - - 15.8 1025.8 -
13/11:30am WSW 6 8 - - - - - - - 15.5 1025.9 -
13/11:00am SSW 5 8 - - - - - - - 15.1 1025.9 -
13/10:30am SSW 5 8 - - - - - - - 14.9 1026.0 -
13/10:00am S 4 7 - - - - - - - 14.5 1026.1 0.0
13/09:30am SSE 5 7 - - - - - - - 14.4 1026.1 0.0
13/09:00am CALM 0 0 - - - - - - - 14.1 1026.0 0.6
13/08:30am CALM 0 0 - - - - - - - 13.7 1025.8 0.6
13/08:00am CALM 0 0 - - - - - - - 13.4 1025.5 0.6
13/07:30am CALM 0 0 - - - - - - - 12.8 1024.9 0.6
13/07:00am W 3 4 - - - - - - - 12.6 1024.8 0.6
13/06:30am S 3 4 - - - - - - - 12.1 1024.7 0.6
13/06:00am SSW 4 7 - - - - - - - 11.6 1024.6 0.6
13/05:30am SE 3 4 - - - - - - - 11.7 1024.6 0.6
13/05:00am SE 6 7 - - - - - - - 11.5 1024.4 0.6
13/04:30am SE 6 7 - - - - - - - 11.3 1024.2 0.6
13/04:00am SE 7 8 - - - - - - - 11.5 1024.1 0.6
13/03:30am SSE 6 7 - - - - - - - 11.5 1024.0 0.6
13/03:00am SSE 6 7 - - - - - - Recent precip. 11.5 1024.1 0.6
13/02:30am SSE 5 6 - - - - - - - 11.8 1024.3 0.4
13/02:00am S 4 5 - - - - - - - 11.6 1024.5 0.4
13/01:30am SSE 5 5 - - - - - - - 12.2 1024.6 0.4
13/01:00am SSW 4 6 - - - - - - - 12.2 1024.7 0.0
13/12:30am S 5 6 - - - - - - - 12.7 1024.7 0.0
13/12:00am SSE 5 6 - - - - - - - 12.6 1024.8 0.0
 
Date/Time
CST
Wind Sea
Height
m
Swell Vis
km
Cloud Weather Temp
°C
Press
MSL
hPa
Rain since
9am
mm
Dir  Spd
kts
Gust
kts
Height
m
Period
s
Dir
12/11:30pm S 5 6 - - - - - - - 12.8 1024.6 0.0
12/11:00pm S 5 7 - - - - - - - 13.3 1024.8 0.0
12/10:30pm SSE 6 8 - - - - - - - 13.6 1025.0 0.0
12/10:00pm SSE 6 7 - - - - - - - 13.4 1025.0 0.0
12/09:30pm SSW 5 6 - - - - - - - 14.0 1025.0 0.0
12/09:00pm S 4 4 - - - - - - - 13.6 1024.9 0.0
12/08:30pm S 4 5 - - - - - - - 13.7 1024.8 0.0
12/08:00pm S 5 7 - - - - - - - 13.7 1024.7 0.0
12/07:30pm SSW 8 11 - - - - - - - 14.1 1024.6 0.0
12/07:00pm SSW 6 7 - - - - - - - 13.9 1024.4 0.0
12/06:30pm SSW 8 14 - - - - - - - 14.3 1024.0 0.0
12/06:00pm SW 5 6 - - - - - - - 14.3 1023.9 0.0
12/05:30pm SSW 6 9 - - - - - - - 14.6 1023.9 0.0
12/05:00pm SW 7 9 - - - - - - - 14.8 1023.7 0.0
12/04:30pm SW 8 11 - - - - - - - 15.1 1023.6 0.0
12/04:00pm SW 8 10 - - - - - - - 15.2 1023.6 0.0
12/03:30pm WSW 7 11 - - - - - - - 15.5 1023.7 0.0
12/03:00pm SW 7 11 - - - - - - - 15.9 1023.7 0.0
12/02:30pm SSW 9 13 - - - - - - - 15.8 1023.7 0.0
12/02:00pm SSW 11 14 - - - - - - - 15.6 1023.8 0.0
12/01:30pm SW 8 10 - - - - - - - 15.4 1024.1 0.0
12/01:00pm WSW 7 9 - - - - - - - 15.6 1024.5 0.0
12/12:30pm WSW 8 11 - - - - - - - 15.6 1025.0 0.0
12/12:00pm SSW 9 13 - - - - - - - 16.0 1025.4 0.0
12/11:30am SW 9 13 - - - - - - - 16.1 1025.7 0.0
12/11:00am SSW 8 11 - - - - - - - 16.0 1025.7 0.0
12/10:30am SW 8 11 - - - - - - - 15.9 1025.7 0.0
12/10:00am SSW 7 9 - - - - - - - 15.3 1026.0 0.0
12/09:30am S 8 11 - - - - - - - 14.8 1026.0 0.0
12/09:00am S 5 9 - - - - - - - 14.4 1026.1 0.0
12/08:30am S 3 5 - - - - - - - 14.0 1026.2 0.0
12/08:00am S 5 7 - - - - - - - 13.8 1026.2 0.0
12/07:30am SSW 7 10 - - - - - - - 13.6 1025.6 0.0
12/07:00am SW 7 9 - - - - - - - 13.3 1025.5 0.0
12/06:30am SSW 4 8 - - - - - - - 13.2 1025.2 0.0
12/06:00am SW 4 6 - - - - - - - 13.0 1025.1 0.0
12/05:30am SSE 1 4 - - - - - - - 12.7 1024.8 0.0
12/05:00am SE 2 3 - - - - - - - 12.7 1024.4 0.0
12/04:30am SSE 4 5 - - - - - - - 12.8 1024.1 0.0
12/04:00am SSW 5 8 - - - - - - - 13.1 1023.9 0.0
12/03:30am SSE 6 10 - - - - - - - 13.3 1023.9 0.0
12/03:00am S 4 6 - - - - - - - 13.1 1024.2 0.0
12/02:30am SSE 5 7 - - - - - - - 13.1 1024.2 0.0
12/02:00am SSW 4 5 - - - - - - - 13.3 1024.7 0.0
12/01:30am SSW 2 4 - - - - - - - 13.2 1025.0 0.0
12/01:00am SSW 5 6 - - - - - - - 13.3 1025.2 0.0
12/12:30am SW 4 4 - - - - - - - 13.5 1025.2 0.0
12/12:00am SSE 6 9 - - - - - - - 13.7 1025.4 0.0

Other formats

Comma delimited format used in spreadsheet applications
http://www.bom.gov.au/fwo/IDS60701/IDS60701.95805.axf

JavaScript Object Notation format (JSON) in row-major order
http://www.bom.gov.au/fwo/IDS60701/IDS60701.95805.json

Data quality

Most of these data are generated automatically and are frequently updated. Quality checks on data are not normally performed. It is possible for incorrect values to appear. Refer to information at About Latest Weather Observations and please check the disclaimer before using these data.